createdAt,value
2022-10-19T00:21:56.549Z,13.15
2022-10-19T01:22:31.766Z,12.55
2022-10-19T01:52:49.371Z,12.45
2022-10-19T02:23:05.577Z,12.3
2022-10-19T02:53:24.429Z,12.1
2022-10-19T03:23:41.486Z,11.8
2022-10-19T03:53:59.278Z,11.95
2022-10-19T04:24:15.909Z,11.9
2022-10-19T05:24:55.873Z,11.8
2022-10-19T05:55:14.578Z,11.9
2022-10-19T06:25:30.126Z,11.9
2022-10-19T06:55:50.747Z,13.3
2022-10-19T07:26:10.303Z,12.85
2022-10-19T07:56:31.620Z,16.7
2022-10-19T08:27:05.178Z,21.1
2022-10-19T08:57:34.175Z,19.85
2022-10-19T09:27:45.468Z,16.95
2022-10-19T09:58:00.157Z,17
2022-10-19T10:28:21.030Z,17.3
2022-10-19T10:58:49.637Z,20.4
2022-10-19T11:29:11.558Z,21.55
2022-10-19T11:59:22.611Z,17.25
2022-10-19T12:29:31.576Z,15.55
2022-10-19T12:59:45.788Z,15.4
2022-10-19T13:30:03.398Z,15.4
2022-10-19T14:00:21.674Z,15.6
2022-10-19T14:30:39.093Z,15.6
2022-10-19T15:00:58.110Z,15.55
2022-10-19T15:31:15.032Z,15.25
2022-10-19T16:01:32.488Z,15.15
2022-10-19T16:31:48.793Z,14.45
2022-10-19T17:02:06.183Z,14.2
2022-10-19T18:02:40.694Z,13.3
2022-10-19T18:32:59.370Z,12.95
2022-10-19T19:03:17.336Z,12.85
2022-10-19T19:33:36.808Z,12.8
2022-10-19T20:03:53.666Z,12.55
2022-10-19T20:34:10.740Z,12.65
2022-10-19T21:04:28.578Z,12.65
2022-10-19T21:34:45.762Z,12.35
2022-10-19T22:05:02.506Z,12
2022-10-19T23:05:36.229Z,11.4
2022-10-19T23:35:53.625Z,11.2
